createdAt,value
2023-08-03T00:01:20.753Z,100403.91
2023-08-03T00:03:48.849Z,100408.37
2023-08-03T00:06:17.003Z,100404.15
2023-08-03T00:08:45.060Z,100383.84
2023-08-03T00:11:14.288Z,100362.55
2023-08-03T00:13:42.416Z,100383.41
2023-08-03T00:16:10.489Z,100353.43
2023-08-03T00:18:38.501Z,100365.37
2023-08-03T00:21:06.468Z,100381.06
2023-08-03T00:23:34.487Z,100373.38
2023-08-03T00:26:02.398Z,100389.20
2023-08-03T00:28:30.232Z,100374.84
2023-08-03T00:30:58.895Z,100387.21
2023-08-03T00:33:26.839Z,100370.14
2023-08-03T00:35:54.721Z,100374.39
2023-08-03T00:38:25.199Z,100385.77
2023-08-03T00:40:54.424Z,100379.20
2023-08-03T00:43:22.471Z,100380.51
2023-08-03T00:45:50.477Z,100379.20
2023-08-03T00:48:19.577Z,100392.18
2023-08-03T00:50:47.666Z,100387.96
2023-08-03T00:53:15.706Z,100390.09
2023-08-03T00:55:43.562Z,100390.84
2023-08-03T00:58:11.539Z,100403.55
2023-08-03T01:00:39.738Z,100408.59
2023-08-03T01:03:07.782Z,100417.03
2023-08-03T01:05:35.759Z,100410.78
2023-08-03T01:08:03.639Z,100428.70
2023-08-03T01:10:31.899Z,100422.49
2023-08-03T01:13:00.036Z,100426.52
2023-08-03T01:15:28.094Z,100429.62
2023-08-03T01:17:56.285Z,100428.61
2023-08-03T01:20:26.527Z,100432.40
2023-08-03T01:22:54.580Z,100439.27
2023-08-03T01:25:22.551Z,100431.71
2023-08-03T01:27:52.308Z,100432.59
2023-08-03T01:30:20.217Z,100438.02
2023-08-03T01:32:48.566Z,100435.80
2023-08-03T01:35:16.658Z,100432.10
2023-08-03T01:37:44.549Z,100434.30
2023-08-03T01:40:15.847Z,100436.75
2023-08-03T01:42:43.796Z,100437.86
2023-08-03T01:45:11.972Z,100440.51
2023-08-03T01:47:40.115Z,100448.72
2023-08-03T01:50:08.406Z,100443.02
2023-08-03T01:52:36.403Z,100442.02
2023-08-03T01:55:04.359Z,100454.70
2023-08-03T01:57:32.292Z,100458.98
2023-08-03T02:00:00.332Z,100454.87
2023-08-03T02:02:28.582Z,100460.95
2023-08-03T02:04:56.532Z,100467.81
2023-08-03T02:07:56.551Z,100479.16
2023-08-03T02:10:26.288Z,100478.90
2023-08-03T02:12:54.329Z,100485.80
2023-08-03T02:15:22.251Z,100488.45
2023-08-03T02:17:50.207Z,100486.65
2023-08-03T02:20:18.453Z,100494.86
2023-08-03T02:22:46.382Z,100501.95
2023-08-03T02:25:14.329Z,100501.27
2023-08-03T02:27:43.464Z,100477.10
2023-08-03T02:30:11.851Z,100493.12
2023-08-03T02:32:39.944Z,100500.25
2023-08-03T02:35:08.582Z,100486.81
2023-08-03T02:37:36.557Z,100489.69
2023-08-03T02:40:04.815Z,100497.80
2023-08-03T02:42:32.722Z,100500.48
2023-08-03T02:45:00.637Z,100500.48
2023-08-03T02:47:28.524Z,100503.36
2023-08-03T02:49:56.590Z,100506.01
2023-08-03T02:52:24.567Z,100499.44
2023-08-03T02:54:52.442Z,100507.87
2023-08-03T02:57:20.419Z,100510.00
2023-08-03T02:59:48.282Z,100506.86
2023-08-03T03:02:16.206Z,100519.97
2023-08-03T03:04:44.142Z,100518.43
2023-08-03T03:07:12.061Z,100513.43
2023-08-03T03:09:39.966Z,100524.19
2023-08-03T03:12:08.376Z,100521.87
2023-08-03T03:14:39.384Z,100529.52
2023-08-03T03:17:07.439Z,100537.95
2023-08-03T03:19:35.278Z,100538.48
2023-08-03T03:22:03.196Z,100541.68
2023-08-03T03:24:31.100Z,100538.55
2023-08-03T03:26:59.107Z,100554.57
2023-08-03T03:29:27.067Z,100554.34
2023-08-03T03:31:55.209Z,100546.49
2023-08-03T03:34:23.227Z,100558.06
2023-08-03T03:36:52.557Z,100565.72
2023-08-03T03:39:20.497Z,100568.10
2023-08-03T03:41:48.428Z,100576.54
2023-08-03T03:44:16.358Z,100589.72
2023-08-03T03:46:44.341Z,100587.43
2023-08-03T03:49:12.243Z,100592.96
2023-08-03T03:51:40.211Z,100585.66
2023-08-03T03:54:08.385Z,100593.28
2023-08-03T03:56:36.337Z,100595.70
2023-08-03T03:59:04.296Z,100594.43
2023-08-03T04:01:32.210Z,100593.38
2023-08-03T04:04:00.270Z,100606.04
2023-08-03T04:06:28.220Z,100596.09
2023-08-03T04:08:56.254Z,100596.62
2023-08-03T04:11:24.200Z,100602.96
2023-08-03T04:13:53.131Z,100601.91
2023-08-03T04:16:23.337Z,100609.27
2023-08-03T04:18:51.351Z,100616.60
2023-08-03T04:21:19.245Z,100617.41
2023-08-03T04:23:47.165Z,100617.91
2023-08-03T04:26:15.106Z,100614.24
2023-08-03T04:28:45.048Z,100612.15
2023-08-03T04:31:13.064Z,100612.15
2023-08-03T04:33:41.086Z,100614.51
2023-08-03T04:36:09.016Z,100610.29
2023-08-03T04:38:36.904Z,100605.80
2023-08-03T04:41:04.911Z,100607.84
2023-08-03T04:43:32.810Z,100619.67
2023-08-03T04:46:00.842Z,100608.36
2023-08-03T04:48:28.804Z,100617.74
2023-08-03T04:50:56.654Z,100621.11
2023-08-03T04:53:24.520Z,100622.39
2023-08-03T04:55:52.538Z,100620.78
2023-08-03T04:58:20.471Z,100621.51
2023-08-03T05:00:48.506Z,100622.26
2023-08-03T05:03:16.574Z,100631.64
2023-08-03T05:05:44.474Z,100627.13
2023-08-03T05:08:12.361Z,100627.55
2023-08-03T05:10:40.233Z,100626.64
2023-08-03T05:13:08.223Z,100629.41
2023-08-03T05:15:36.296Z,100627.72
2023-08-03T05:18:04.669Z,100636.05
2023-08-03T05:20:32.816Z,100635.14
2023-08-03T05:23:01.543Z,100628.21
2023-08-03T05:25:29.639Z,100639.91
2023-08-03T05:27:57.584Z,100636.64
2023-08-03T05:30:25.585Z,100644.20
2023-08-03T05:32:53.583Z,100644.10
2023-08-03T05:35:21.582Z,100644.79
2023-08-03T05:37:49.585Z,100651.52
2023-08-03T05:40:17.956Z,100645.67
2023-08-03T05:42:45.835Z,100647.20
2023-08-03T05:45:35.029Z,100652.38
2023-08-03T05:48:03.405Z,100653.65
2023-08-03T05:50:32.329Z,100641.74
2023-08-03T05:53:00.297Z,100639.06
2023-08-03T05:55:28.514Z,100637.16
2023-08-03T05:57:57.003Z,100638.97
2023-08-03T06:00:31.198Z,100642.10
2023-08-03T06:03:03.240Z,100634.98
2023-08-03T06:06:00.829Z,100634.68
2023-08-03T06:08:29.991Z,100630.89
2023-08-03T06:10:59.650Z,100632.03
2023-08-03T06:13:37.064Z,100626.64
2023-08-03T06:16:11.999Z,100624.19
2023-08-03T06:18:52.105Z,100631.41
2023-08-03T06:21:20.355Z,100643.61
2023-08-03T06:23:53.382Z,100650.15
2023-08-03T06:26:24.518Z,100652.51
2023-08-03T06:28:56.573Z,100659.08
2023-08-03T06:31:38.169Z,100666.70
2023-08-03T06:34:06.335Z,100659.34
2023-08-03T06:36:34.622Z,100653.29
2023-08-03T06:39:02.496Z,100653.87
2023-08-03T06:41:30.655Z,100654.89
2023-08-03T06:43:59.485Z,100660.91
2023-08-03T06:46:28.442Z,100666.50
2023-08-03T06:48:57.255Z,100670.72
2023-08-03T06:51:25.285Z,100666.50
2023-08-03T06:53:53.566Z,100674.38
2023-08-03T06:56:21.480Z,100683.90
2023-08-03T06:58:49.397Z,100667.84
2023-08-03T07:01:17.458Z,100692.01
2023-08-03T07:03:45.642Z,100689.36
2023-08-03T07:06:13.639Z,100684.55
2023-08-03T07:08:41.518Z,100691.68
2023-08-03T07:11:09.436Z,100680.89
2023-08-03T07:13:37.322Z,100695.38
2023-08-03T07:16:11.578Z,100686.91
2023-08-03T07:18:39.623Z,100696.39
2023-08-03T07:21:08.024Z,100695.51
2023-08-03T07:23:36.691Z,100701.75
2023-08-03T07:26:04.651Z,100707.21
2023-08-03T07:28:32.645Z,100716.95
2023-08-03T07:31:00.658Z,100708.68
2023-08-03T07:33:29.014Z,100707.02
2023-08-03T07:35:56.950Z,100708.03
2023-08-03T07:38:24.984Z,100705.02
2023-08-03T07:40:52.914Z,100707.63
2023-08-03T07:43:20.905Z,100702.63
2023-08-03T07:45:51.803Z,100705.97
2023-08-03T07:48:19.940Z,100703.29
2023-08-03T07:50:47.862Z,100699.49
2023-08-03T07:53:15.787Z,100713.09
2023-08-03T07:55:43.735Z,100706.43
2023-08-03T07:58:14.102Z,100702.05
2023-08-03T08:00:42.044Z,100711.98
2023-08-03T08:03:10.073Z,100699.46
2023-08-03T08:05:38.034Z,100708.84
2023-08-03T08:08:06.082Z,100716.86
2023-08-03T08:10:34.073Z,100708.29
2023-08-03T08:13:01.936Z,100714.18
2023-08-03T08:15:30.677Z,100703.78
2023-08-03T08:17:58.666Z,100700.73
2023-08-03T08:20:26.583Z,100707.18
2023-08-03T08:22:54.559Z,100716.04
2023-08-03T08:25:22.681Z,100696.68
2023-08-03T08:27:50.844Z,100728.89
2023-08-03T08:30:18.845Z,100726.77
2023-08-03T08:32:46.781Z,100709.66
2023-08-03T08:35:14.739Z,100699.59
2023-08-03T08:37:42.647Z,100704.50
2023-08-03T08:40:15.083Z,100710.19
2023-08-03T08:42:43.149Z,100719.34
2023-08-03T08:45:12.602Z,100725.00
2023-08-03T08:47:40.847Z,100721.77
2023-08-03T09:00:29.154Z,100698.74
2023-08-03T09:02:59.183Z,100694.49
2023-08-03T09:08:06.289Z,100704.07
2023-08-03T09:10:50.353Z,100705.67
2023-08-03T09:13:27.489Z,100690.08
2023-08-03T09:15:55.657Z,100679.84
2023-08-03T09:18:24.661Z,100693.67
2023-08-03T09:20:52.898Z,100708.29
2023-08-03T09:26:03.415Z,100715.26
2023-08-03T09:28:44.727Z,100710.41
2023-08-03T09:31:28.894Z,100719.34
2023-08-03T09:33:59.308Z,100722.13
2023-08-03T09:44:19.738Z,100733.86
2023-08-03T09:46:51.638Z,100728.40
2023-08-03T09:49:19.878Z,100729.22
2023-08-03T09:57:32.513Z,100725.55
2023-08-03T10:00:08.758Z,100745.02
2023-08-03T10:02:47.137Z,100742.66
2023-08-03T10:05:21.752Z,100733.57
2023-08-03T10:08:08.547Z,100736.87
2023-08-03T10:10:45.793Z,100750.67
2023-08-03T10:13:13.772Z,100736.31
2023-08-03T10:15:43.375Z,100729.09
2023-08-03T10:18:11.546Z,100729.64
2023-08-03T10:20:41.486Z,100735.46
2023-08-03T10:23:17.001Z,100737.82
2023-08-03T10:25:55.471Z,100726.96
2023-08-03T10:28:28.182Z,100717.84
2023-08-03T10:31:21.736Z,100717.67
2023-08-03T10:33:53.604Z,100727.06
2023-08-03T10:36:30.956Z,100725.16
2023-08-03T10:39:00.254Z,100714.54
2023-08-03T10:41:38.656Z,100716.30
2023-08-03T10:44:14.465Z,100713.78
2023-08-03T10:46:50.934Z,100722.98
2023-08-03T10:49:22.491Z,100712.87
2023-08-03T10:51:54.105Z,100712.90
2023-08-03T10:54:29.889Z,100727.71
2023-08-03T10:57:04.906Z,100715.06
2023-08-03T10:59:50.516Z,100718.79
2023-08-03T11:02:21.994Z,100713.13
2023-08-03T11:04:54.092Z,100718.79
2023-08-03T11:07:28.938Z,100723.66
2023-08-03T11:09:57.000Z,100733.02
2023-08-03T11:12:26.150Z,100718.82
2023-08-03T11:14:56.511Z,100730.10
2023-08-03T11:17:29.875Z,100723.10
2023-08-03T11:19:59.378Z,100723.46
2023-08-03T11:22:28.030Z,100720.36
2023-08-03T11:25:01.584Z,100733.21
2023-08-03T11:27:29.754Z,100723.89
2023-08-03T11:29:59.315Z,100717.88
2023-08-03T11:32:30.042Z,100716.27
2023-08-03T11:35:04.825Z,100727.55
2023-08-03T11:37:34.832Z,100724.28
2023-08-03T11:40:06.450Z,100710.12
2023-08-03T11:42:41.157Z,100708.75
2023-08-03T11:45:09.932Z,100711.85
2023-08-03T11:47:49.072Z,100728.17
2023-08-03T11:50:22.009Z,100716.53
2023-08-03T11:52:50.111Z,100715.59
2023-08-03T11:55:40.749Z,100719.08
2023-08-03T11:58:13.118Z,100704.92
2023-08-03T12:00:43.033Z,100709.96
2023-08-03T12:03:11.892Z,100720.06
2023-08-03T12:05:54.513Z,100704.89
2023-08-03T12:08:25.689Z,100696.95
2023-08-03T12:11:03.697Z,100713.26
2023-08-03T12:13:38.713Z,100705.48
2023-08-03T12:16:07.933Z,100713.85
2023-08-03T12:18:35.912Z,100718.92
2023-08-03T12:21:04.604Z,100716.76
2023-08-03T12:23:36.993Z,100725.52
2023-08-03T12:26:05.489Z,100710.74
2023-08-03T12:28:33.484Z,100713.26
2023-08-03T12:31:03.883Z,100722.38
2023-08-03T12:33:32.056Z,100712.67
2023-08-03T12:36:00.099Z,100701.75
2023-08-03T12:38:34.166Z,100715.55
2023-08-03T12:41:02.135Z,100713.82
2023-08-03T12:43:30.101Z,100720.39
2023-08-03T12:45:58.074Z,100713.75
2023-08-03T12:48:26.269Z,100726.18
2023-08-03T12:50:54.581Z,100721.27
2023-08-03T12:53:22.474Z,100710.16
2023-08-03T12:55:50.432Z,100707.41
2023-08-03T12:58:18.313Z,100717.91
2023-08-03T13:00:47.866Z,100711.89
2023-08-03T13:03:16.304Z,100720.26
2023-08-03T13:05:46.171Z,100713.03
2023-08-03T13:08:15.078Z,100717.52
2023-08-03T13:10:43.024Z,100717.91
2023-08-03T13:13:10.902Z,100719.70
2023-08-03T13:15:38.895Z,100734.74
2023-08-03T13:18:07.004Z,100726.15
2023-08-03T13:20:39.737Z,100726.15
2023-08-03T13:23:09.388Z,100729.64
2023-08-03T13:25:37.842Z,100727.95
2023-08-03T13:28:07.651Z,100724.64
2023-08-03T13:30:35.640Z,100735.56
2023-08-03T13:33:03.649Z,100734.62
2023-08-03T13:35:31.979Z,100741.84
2023-08-03T13:38:00.366Z,100739.13
2023-08-03T13:40:28.403Z,100738.34
2023-08-03T13:42:56.346Z,100745.34
2023-08-03T13:45:24.767Z,100743.77
2023-08-03T13:47:52.872Z,100744.55
2023-08-03T13:50:20.929Z,100732.88
2023-08-03T13:52:48.835Z,100739.13
2023-08-03T13:55:16.769Z,100735.98
2023-08-03T13:57:44.661Z,100739.91
2023-08-03T14:00:12.938Z,100735.23
2023-08-03T14:02:44.653Z,100746.71
2023-08-03T14:05:13.215Z,100747.89
2023-08-03T14:22:46.786Z,100735.95
2023-08-03T14:27:52.545Z,100747.66
2023-08-03T14:30:21.605Z,100746.88
2023-08-03T14:32:50.349Z,100741.41
2023-08-03T14:37:50.537Z,100739.84
2023-08-03T14:40:18.594Z,100732.03
2023-08-03T14:42:56.363Z,100741.02
2023-08-03T14:45:28.760Z,100733.21
2023-08-03T14:48:06.303Z,100731.84
2023-08-03T14:50:37.260Z,100719.77
2023-08-03T14:53:05.477Z,100726.41
2023-08-03T14:55:33.480Z,100728.17
2023-08-03T14:58:01.454Z,100713.78
2023-08-03T15:00:29.570Z,100743.41
2023-08-03T15:02:57.742Z,100732.49
2023-08-03T15:05:26.073Z,100740.86
2023-08-03T15:07:54.161Z,100737.91
2023-08-03T15:10:22.300Z,100740.63
2023-08-03T15:12:50.180Z,100744.13
2023-08-03T15:15:30.185Z,100745.08
2023-08-03T15:17:59.808Z,100741.02
2023-08-03T15:20:37.318Z,100755.77
2023-08-03T15:23:07.542Z,100743.70
2023-08-03T15:25:36.833Z,100741.94
2023-08-03T15:28:10.953Z,100739.98
2023-08-03T15:35:43.601Z,100747.89
2023-08-03T15:38:13.661Z,100753.13
2023-08-03T15:40:53.967Z,100742.76
2023-08-03T15:43:40.139Z,100745.30
2023-08-03T15:46:12.891Z,100727.55
2023-08-03T15:51:19.327Z,100721.70
2023-08-03T15:53:57.594Z,100738.24
2023-08-03T15:56:30.494Z,100740.73
2023-08-03T15:58:58.567Z,100737.23
2023-08-03T16:01:28.614Z,100746.55
2023-08-03T16:03:56.682Z,100737.72
2023-08-03T16:06:25.584Z,100752.14
2023-08-03T16:08:53.454Z,100740.47
2023-08-03T16:11:30.151Z,100734.88
2023-08-03T16:14:03.368Z,100738.67
2023-08-03T16:16:35.009Z,100744.91
2023-08-03T16:19:03.084Z,100738.51
2023-08-03T16:21:31.022Z,100737.16
2023-08-03T16:23:58.903Z,100742.10
2023-08-03T16:26:26.895Z,100745.41
2023-08-03T16:28:54.859Z,100746.81
2023-08-03T16:31:26.608Z,100748.77
2023-08-03T16:34:11.485Z,100738.67
2023-08-03T16:36:40.234Z,100740.04
2023-08-03T16:39:08.379Z,100745.70
2023-08-03T16:41:39.400Z,100750.38
2023-08-03T16:44:07.377Z,100744.55
2023-08-03T16:46:35.457Z,100750.60
2023-08-03T16:49:03.731Z,100754.49
2023-08-03T16:51:31.688Z,100749.43
2023-08-03T16:53:59.668Z,100746.91
2023-08-03T16:56:27.707Z,100745.34
2023-08-03T16:58:55.673Z,100761.88
2023-08-03T17:01:23.662Z,100753.16
2023-08-03T17:03:52.026Z,100748.87
2023-08-03T17:06:20.119Z,100752.17
2023-08-03T17:08:48.129Z,100759.37
2023-08-03T17:11:16.020Z,100754.10
2023-08-03T17:13:44.106Z,100754.34
2023-08-03T17:16:12.140Z,100753.55
2023-08-03T17:18:40.176Z,100758.19
2023-08-03T17:21:08.619Z,100759.01
2023-08-03T17:23:36.621Z,100750.44
2023-08-03T17:26:04.606Z,100757.44
2023-08-03T17:28:32.560Z,100759.56
2023-08-03T17:31:05.278Z,100757.83
2023-08-03T17:33:33.476Z,100758.19
2023-08-03T17:36:01.675Z,100764.01
2023-08-03T17:38:29.828Z,100765.58
2023-08-03T17:40:58.582Z,100772.22
2023-08-03T17:43:28.406Z,100766.76
2023-08-03T17:45:56.421Z,100766.01
2023-08-03T17:48:26.173Z,100783.70
2023-08-03T17:50:54.149Z,100786.05
2023-08-03T17:53:24.340Z,100792.07
2023-08-03T17:55:53.014Z,100792.66
2023-08-03T17:58:21.022Z,100795.21
2023-08-03T18:00:49.225Z,100805.12
2023-08-03T18:03:17.219Z,100800.63
2023-08-03T18:05:45.554Z,100801.39
2023-08-03T18:08:15.366Z,100802.73
2023-08-03T18:10:45.763Z,100802.66
2023-08-03T18:13:13.743Z,100807.73
2023-08-03T18:15:41.747Z,100804.76
2023-08-03T18:18:10.093Z,100807.27
2023-08-03T18:20:39.119Z,100807.11
2023-08-03T18:23:07.058Z,100805.34
2023-08-03T18:25:34.970Z,100812.51
2023-08-03T18:28:02.959Z,100807.83
2023-08-03T18:30:31.151Z,100806.66
2023-08-03T18:32:59.447Z,100805.09
2023-08-03T18:35:28.376Z,100807.02
2023-08-03T18:37:57.331Z,100803.91
2023-08-03T18:40:25.368Z,100816.92
2023-08-03T18:42:53.381Z,100811.27
2023-08-03T18:45:21.343Z,100811.82
2023-08-03T18:47:49.268Z,100817.48
2023-08-03T18:50:17.484Z,100824.84
2023-08-03T18:55:13.832Z,100837.78
2023-08-03T18:57:41.841Z,100841.28
2023-08-03T19:00:10.373Z,100855.44
2023-08-03T19:02:38.392Z,100846.87
2023-08-03T19:05:07.872Z,100854.40
2023-08-03T19:07:35.782Z,100860.15
2023-08-03T19:10:03.769Z,100861.30
2023-08-03T19:12:31.702Z,100872.87
2023-08-03T19:14:59.675Z,100880.62
2023-08-03T19:17:27.677Z,100892.23
2023-08-03T19:19:55.718Z,100896.61
2023-08-03T19:22:23.691Z,100892.30
2023-08-03T19:24:51.568Z,100893.99
2023-08-03T19:27:19.504Z,100893.80
2023-08-03T19:29:49.358Z,100893.57
2023-08-03T19:32:17.357Z,100900.53
2023-08-03T19:34:45.458Z,100907.50
2023-08-03T19:37:13.480Z,100924.73
2023-08-03T19:39:41.474Z,100916.36
2023-08-03T19:42:09.478Z,100919.83
2023-08-03T19:44:38.872Z,100927.35
2023-08-03T19:47:07.217Z,100929.24
2023-08-03T19:57:08.260Z,100933.30
2023-08-03T19:59:36.203Z,100934.45
2023-08-03T20:09:45.669Z,100945.66
2023-08-03T20:12:13.680Z,100944.65
2023-08-03T20:14:44.618Z,100946.58
2023-08-03T20:19:49.291Z,100948.84
2023-08-03T20:22:20.828Z,100958.09
2023-08-03T20:24:51.319Z,100957.07
2023-08-03T20:30:01.529Z,100966.95
2023-08-03T20:32:29.803Z,100970.97
2023-08-03T20:34:57.920Z,100959.88
2023-08-03T20:37:25.947Z,100967.41
2023-08-03T20:49:58.256Z,100946.38
2023-08-03T20:52:26.347Z,100948.51
2023-08-03T20:54:54.294Z,100958.58
2023-08-03T20:57:22.251Z,100964.92
2023-08-03T20:59:50.303Z,100978.69
2023-08-03T21:02:18.311Z,100977.91
2023-08-03T21:04:49.656Z,100971.66
2023-08-03T21:07:18.014Z,100971.20
2023-08-03T21:10:50.364Z,100980.81
2023-08-03T21:12:34.928Z,100984.94
2023-08-03T21:15:02.853Z,100980.55
2023-08-03T21:17:31.009Z,100987.78
2023-08-03T21:20:05.633Z,100988.99
2023-08-03T21:22:33.770Z,100992.91
2023-08-03T21:25:01.775Z,100994.32
2023-08-03T21:27:32.711Z,100986.47
2023-08-03T21:32:34.993Z,100976.63
2023-08-03T21:35:05.134Z,100976.95
2023-08-03T21:40:07.089Z,100983.73
2023-08-03T21:42:35.405Z,100983.46
2023-08-03T21:45:03.325Z,100979.57
2023-08-03T21:47:31.331Z,100986.47
2023-08-03T21:49:59.577Z,100989.35
2023-08-03T21:52:27.671Z,101004.45
2023-08-03T21:54:55.649Z,101001.84
2023-08-03T21:57:23.644Z,101004.29
2023-08-03T21:59:51.664Z,101005.08
2023-08-03T22:02:19.634Z,101007.95
2023-08-03T22:04:47.625Z,101004.03
2023-08-03T22:07:15.681Z,101010.63
2023-08-03T22:09:43.718Z,100999.35
2023-08-03T22:12:12.933Z,100999.09
2023-08-03T22:14:40.900Z,101001.77
2023-08-03T22:17:08.945Z,100999.95
2023-08-03T22:19:36.881Z,101003.70
2023-08-03T22:22:04.959Z,100998.44
2023-08-03T22:24:32.933Z,101009.03
2023-08-03T22:27:00.936Z,101013.02
2023-08-03T22:29:28.921Z,101017.80
2023-08-03T22:31:56.916Z,101016.81
2023-08-03T22:34:24.812Z,101029.73
2023-08-03T22:36:52.776Z,101035.85
2023-08-03T22:39:20.785Z,101031.40
2023-08-03T22:41:49.089Z,101039.84
2023-08-03T22:44:17.220Z,101044.32
2023-08-03T22:46:45.252Z,101049.84
2023-08-03T22:49:13.356Z,101049.32
2023-08-03T22:51:41.411Z,101061.71
2023-08-03T22:54:09.350Z,101054.88
2023-08-03T22:56:37.290Z,101059.13
2023-08-03T22:59:05.279Z,101052.52
2023-08-03T23:01:33.290Z,101054.65
2023-08-03T23:04:01.436Z,101051.51
2023-08-03T23:06:29.605Z,101043.14
2023-08-03T23:08:58.732Z,101053.15
2023-08-03T23:11:26.785Z,101065.05
2023-08-03T23:13:54.789Z,101074.30
2023-08-03T23:16:22.808Z,101071.91
2023-08-03T23:18:50.905Z,101076.73
2023-08-03T23:21:18.901Z,101078.59
2023-08-03T23:23:47.149Z,101068.09
2023-08-03T23:26:20.952Z,101070.18
2023-08-03T23:28:51.806Z,101071.30
2023-08-03T23:31:19.997Z,101070.25
2023-08-03T23:33:48.216Z,101074.23
2023-08-03T23:36:16.163Z,101076.33
2023-08-03T23:38:44.119Z,101073.23
2023-08-03T23:41:12.051Z,101064.27
2023-08-03T23:43:40.008Z,101071.39
2023-08-03T23:46:08.114Z,101078.52
2023-08-03T23:48:36.023Z,101067.47
2023-08-03T23:51:03.947Z,101075.94
2023-08-03T23:53:31.993Z,101078.03
2023-08-03T23:55:59.897Z,101085.68
2023-08-03T23:58:27.836Z,101073.09
